createdAt,value
2022-08-05T00:00:43.097Z,100393.31
2022-08-05T00:03:15.675Z,100407.16
2022-08-05T00:06:04.661Z,100432.59
2022-08-05T00:08:36.199Z,100453.25
2022-08-05T00:11:30.172Z,100476.31
2022-08-05T00:13:58.184Z,100499.72
2022-08-05T00:16:35.396Z,100485.34
2022-08-05T00:19:05.219Z,100469.34
2022-08-05T00:21:35.891Z,100462.81
2022-08-05T00:24:10.561Z,100446.28
2022-08-05T00:26:46.701Z,100451.38
2022-08-05T00:30:29.254Z,100428.81
2022-08-05T00:32:59.780Z,100417.94
2022-08-05T00:35:33.325Z,100413.28
2022-08-05T00:38:03.492Z,100411.88
2022-08-05T00:40:53.289Z,100415.66
2022-08-05T00:43:21.549Z,100409.63
2022-08-05T00:45:49.528Z,100420.13
2022-08-05T00:48:27.670Z,100413.03
2022-08-05T00:50:59.593Z,100407.53
2022-08-05T00:54:00.575Z,100422.94
2022-08-05T00:56:24.973Z,100436.13
2022-08-05T00:58:52.667Z,100436.00
2022-08-05T01:01:24.935Z,100446.59
2022-08-05T01:04:14.304Z,100445.94
2022-08-05T01:06:48.537Z,100447.19
2022-08-05T01:09:20.008Z,100454.59
2022-08-05T01:11:51.705Z,100463.31
2022-08-05T01:14:28.420Z,100471.75
2022-08-05T01:17:58.033Z,100474.75
2022-08-05T01:20:31.625Z,100489.13
2022-08-05T01:23:15.295Z,100486.09
2022-08-05T01:27:01.041Z,100498.03
2022-08-05T01:29:51.840Z,100490.47
2022-08-05T01:32:23.841Z,100487.75
2022-08-05T01:34:58.343Z,100488.00
2022-08-05T01:37:32.246Z,100497.22
2022-08-05T01:40:03.037Z,100486.06
2022-08-05T01:42:33.063Z,100487.72
2022-08-05T01:45:03.463Z,100498.00
2022-08-05T01:47:39.277Z,100494.19
2022-08-05T01:50:15.314Z,100496.63
2022-08-05T01:52:44.642Z,100492.00
2022-08-05T01:55:19.873Z,100502.03
2022-08-05T01:58:11.867Z,100502.78
2022-08-05T02:00:44.399Z,100496.81
2022-08-05T02:03:29.030Z,100488.66
2022-08-05T02:06:03.748Z,100496.75
2022-08-05T02:08:58.549Z,100503.50
2022-08-05T02:11:32.751Z,100497.78
2022-08-05T02:14:07.233Z,100490.41
2022-08-05T02:18:31.988Z,100484.72
2022-08-05T02:20:41.671Z,100496.94
2022-08-05T02:23:12.187Z,100505.06
2022-08-05T02:25:49.229Z,100507.75
2022-08-05T02:28:28.882Z,100504.78
2022-08-05T02:32:04.862Z,100496.88
2022-08-05T02:34:34.008Z,100509.31
2022-08-05T02:37:05.473Z,100518.25
2022-08-05T02:39:36.991Z,100517.72
2022-08-05T02:42:10.820Z,100518.78
2022-08-05T02:44:56.364Z,100541.81
2022-08-05T02:47:26.016Z,100555.09
2022-08-05T02:51:17.978Z,100556.22
2022-08-05T02:54:03.422Z,100542.94
2022-08-05T02:56:33.683Z,100540.47
2022-08-05T02:59:02.484Z,100541.63
2022-08-05T03:01:33.277Z,100539.91
2022-08-05T03:04:13.998Z,100541.25
2022-08-05T03:06:54.363Z,100537.22
2022-08-05T03:09:37.608Z,100547.22
2022-08-05T03:12:11.756Z,100546.94
2022-08-05T03:14:46.006Z,100544.78
2022-08-05T03:17:16.656Z,100537.22
2022-08-05T03:19:45.570Z,100550.28
2022-08-05T03:22:16.832Z,100559.75
2022-08-05T03:24:50.931Z,100564.88
2022-08-05T03:27:19.767Z,100554.59
2022-08-05T03:30:07.530Z,100556.22
2022-08-05T03:32:36.112Z,100558.03
2022-08-05T03:35:04.484Z,100552.94
2022-08-05T03:37:46.558Z,100556.81
2022-08-05T03:40:31.144Z,100548.09
2022-08-05T03:43:15.912Z,100530.16
2022-08-05T03:45:58.037Z,100530.69
2022-08-05T03:48:27.566Z,100531.75
2022-08-05T03:52:38.086Z,100527.13
2022-08-05T03:56:00.722Z,100507.31
2022-08-05T03:56:52.813Z,100498.63
2022-08-05T03:59:26.082Z,100485.66
2022-08-05T04:01:58.903Z,100477.47
2022-08-05T04:04:30.007Z,100477.81
2022-08-05T04:06:59.200Z,100479.91
2022-08-05T04:09:27.950Z,100471.00
2022-08-05T04:11:58.173Z,100459.91
2022-08-05T04:14:29.823Z,100424.19
2022-08-05T04:17:00.078Z,100425.50
2022-08-05T04:19:29.762Z,100422.78
2022-08-05T04:22:09.508Z,100429.25
2022-08-05T04:24:43.828Z,100484.59
2022-08-05T04:27:15.293Z,100521.97
2022-08-05T04:29:43.573Z,100513.59
2022-08-05T04:33:13.094Z,100505.75
2022-08-05T04:36:15.804Z,100502.66
2022-08-05T04:38:39.576Z,100517.31
2022-08-05T04:41:09.602Z,100510.72
2022-08-05T04:43:48.151Z,100524.00
2022-08-05T04:46:28.231Z,100536.66
2022-08-05T04:48:58.686Z,100550.13
2022-08-05T04:51:30.309Z,100561.97
2022-08-05T04:53:59.291Z,100558.50
2022-08-05T04:56:34.326Z,100549.50
2022-08-05T04:59:21.996Z,100557.34
2022-08-05T05:02:06.850Z,100553.03
2022-08-05T05:04:47.568Z,100552.75
2022-08-05T05:07:23.944Z,100554.47
2022-08-05T05:09:57.421Z,100551.75
2022-08-05T05:12:27.562Z,100544.50
2022-08-05T05:15:03.759Z,100545.59
2022-08-05T05:17:57.067Z,100557.78
2022-08-05T05:20:28.328Z,100567.56
2022-08-05T05:22:56.846Z,100556.03
2022-08-05T05:25:40.421Z,100543.22
2022-08-05T05:28:09.673Z,100536.00
2022-08-05T05:30:41.868Z,100538.16
2022-08-05T05:33:17.095Z,100549.34
2022-08-05T05:35:47.483Z,100565.97
2022-08-05T05:38:22.862Z,100550.28
2022-08-05T05:40:55.072Z,100561.09
2022-08-05T05:43:54.201Z,100567.56
2022-08-05T05:46:15.788Z,100583.25
2022-08-05T05:48:48.323Z,100588.72
2022-08-05T05:51:23.931Z,100572.00
2022-08-05T05:53:57.697Z,100560.41
2022-08-05T05:56:33.306Z,100566.69
2022-08-05T05:59:05.248Z,100558.66
2022-08-05T06:01:37.539Z,100552.84
2022-08-05T06:04:11.695Z,100566.44
2022-08-05T06:07:42.467Z,100573.25
2022-08-05T06:10:29.250Z,100576.91
2022-08-05T06:12:57.270Z,100568.50
2022-08-05T06:15:25.824Z,100560.06
2022-08-05T06:18:15.327Z,100554.75
2022-08-05T06:20:43.296Z,100543.41
2022-08-05T06:23:16.662Z,100550.47
2022-08-05T06:26:13.387Z,100551.78
2022-08-05T06:28:32.566Z,100541.28
2022-08-05T06:31:01.138Z,100561.22
2022-08-05T06:34:07.156Z,100560.31
2022-08-05T06:36:29.638Z,100552.25
2022-08-05T06:39:18.074Z,100542.44
2022-08-05T06:41:50.667Z,100546.06
2022-08-05T06:44:22.061Z,100552.03
2022-08-05T06:46:51.268Z,100551.41
2022-08-05T06:50:01.421Z,100555.00
2022-08-05T06:52:36.978Z,100561.75
2022-08-05T06:54:59.539Z,100556.56
2022-08-05T06:58:03.714Z,100561.38
2022-08-05T07:00:22.314Z,100564.06
2022-08-05T07:02:54.416Z,100558.72
2022-08-05T07:05:37.245Z,100555.75
2022-08-05T07:08:06.419Z,100564.19
2022-08-05T07:10:39.245Z,100567.25
2022-08-05T07:13:57.786Z,100561.94
2022-08-05T07:18:00.303Z,100581.88
2022-08-05T07:20:10.521Z,100589.94
2022-08-05T07:22:29.064Z,100593.94
2022-08-05T07:24:59.879Z,100595.41
2022-08-05T07:27:57.400Z,100607.22
2022-08-05T07:30:39.149Z,100635.78
2022-08-05T07:33:10.413Z,100679.88
2022-08-05T07:36:03.727Z,100698.56
2022-08-05T07:38:42.835Z,100693.47
2022-08-05T07:42:14.318Z,100670.59
2022-08-05T07:44:14.489Z,100661.06
2022-08-05T07:46:49.274Z,100668.13
2022-08-05T07:49:18.906Z,100679.63
2022-08-05T07:51:53.717Z,100668.81
2022-08-05T07:54:31.413Z,100665.53
2022-08-05T07:57:17.982Z,100650.88
2022-08-05T07:59:52.534Z,100619.28
2022-08-05T08:02:26.478Z,100599.16
2022-08-05T08:04:55.120Z,100600.78
2022-08-05T08:07:23.378Z,100630.84
2022-08-05T08:09:54.916Z,100676.03
2022-08-05T08:12:37.518Z,100725.75
2022-08-05T08:15:15.404Z,100703.97
2022-08-05T08:17:52.309Z,100676.53
2022-08-05T08:21:00.312Z,100654.75
2022-08-05T08:24:00.323Z,100673.13
2022-08-05T08:26:02.888Z,100662.13
2022-08-05T08:28:36.050Z,100665.28
2022-08-05T08:31:05.273Z,100663.59
2022-08-05T08:33:38.063Z,100665.22
2022-08-05T08:38:57.738Z,100677.34
2022-08-05T08:41:51.287Z,100684.09
2022-08-05T08:45:22.721Z,100698.00
2022-08-05T08:47:21.876Z,100698.97
2022-08-05T08:50:23.042Z,100687.09
2022-08-05T08:52:51.790Z,100689.56
2022-08-05T08:56:02.521Z,100698.59
2022-08-05T08:58:16.717Z,100705.63
2022-08-05T09:00:44.784Z,100696.31
2022-08-05T09:03:16.138Z,100697.75
2022-08-05T09:06:09.161Z,100700.41
2022-08-05T09:08:40.087Z,100708.25
2022-08-05T09:11:13.617Z,100711.31
2022-08-05T09:14:00.803Z,100710.91
2022-08-05T09:16:32.235Z,100717.75
2022-08-05T09:19:00.131Z,100729.16
2022-08-05T09:22:23.110Z,100727.75
2022-08-05T09:24:17.733Z,100737.97
2022-08-05T09:26:48.356Z,100730.66
2022-08-05T09:29:21.062Z,100734.66
2022-08-05T09:32:42.353Z,100746.16
2022-08-05T09:34:54.884Z,100739.31
2022-08-05T09:38:16.512Z,100743.84
2022-08-05T09:40:31.077Z,100748.78
2022-08-05T09:43:00.192Z,100756.78
2022-08-05T09:46:06.860Z,100756.91
2022-08-05T09:48:32.363Z,100750.84
2022-08-05T09:51:01.859Z,100749.16
2022-08-05T09:53:53.550Z,100758.75
2022-08-05T09:56:27.487Z,100767.56
2022-08-05T09:58:59.880Z,100774.09
2022-08-05T10:01:32.478Z,100782.13
2022-08-05T10:04:03.671Z,100781.22
2022-08-05T10:06:32.015Z,100784.91
2022-08-05T10:09:27.266Z,100798.03
2022-08-05T10:11:56.211Z,100796.81
2022-08-05T10:14:26.820Z,100800.44
2022-08-05T10:16:57.315Z,100800.06
2022-08-05T10:19:31.858Z,100798.78
2022-08-05T10:22:15.640Z,100792.06
2022-08-05T10:24:57.901Z,100794.03
2022-08-05T10:28:09.709Z,100810.19
2022-08-05T10:31:20.052Z,100816.78
2022-08-05T10:33:08.969Z,100811.63
2022-08-05T10:35:43.901Z,100803.59
2022-08-05T10:38:14.162Z,100813.03
2022-08-05T10:40:49.000Z,100823.69
2022-08-05T10:43:30.837Z,100834.88
2022-08-05T10:46:07.673Z,100844.56
2022-08-05T10:48:56.868Z,100838.13
2022-08-05T10:51:28.956Z,100856.00
2022-08-05T10:54:00.972Z,100848.53
2022-08-05T10:56:32.060Z,100846.84
2022-08-05T11:00:01.279Z,100847.25
2022-08-05T11:02:08.610Z,100862.34
2022-08-05T11:04:59.441Z,100879.00
2022-08-05T11:07:33.049Z,100863.97
2022-08-05T11:10:23.117Z,100877.13
2022-08-05T11:12:56.510Z,100877.66
2022-08-05T11:16:00.803Z,100880.84
2022-08-05T11:18:30.154Z,100893.16
2022-08-05T11:21:11.304Z,100884.94
2022-08-05T11:24:04.297Z,100877.03
2022-08-05T11:26:33.346Z,100880.06
2022-08-05T11:29:12.729Z,100889.94
2022-08-05T11:31:58.906Z,100896.66
2022-08-05T11:34:47.413Z,100887.91
2022-08-05T11:38:28.067Z,100873.44
2022-08-05T11:41:12.859Z,100886.34
2022-08-05T11:44:05.559Z,100876.78
2022-08-05T11:47:09.537Z,100891.91
2022-08-05T11:49:34.062Z,100879.53
2022-08-05T11:52:11.166Z,100880.53
2022-08-05T11:54:41.671Z,100888.22
2022-08-05T11:57:25.169Z,100889.34
2022-08-05T11:59:55.016Z,100880.88
2022-08-05T12:02:30.489Z,100901.97
2022-08-05T12:05:01.095Z,100886.63
2022-08-05T12:08:07.901Z,100899.56
2022-08-05T12:10:24.801Z,100901.81
2022-08-05T12:13:16.855Z,100906.69
2022-08-05T12:15:49.798Z,100902.81
2022-08-05T12:18:20.616Z,100898.25
2022-08-05T12:20:52.845Z,100894.72
2022-08-05T12:23:20.499Z,100883.22
2022-08-05T12:25:56.930Z,100903.72
2022-08-05T12:28:37.089Z,100900.19
2022-08-05T12:32:09.562Z,100905.63
2022-08-05T12:34:38.683Z,100901.88
2022-08-05T12:37:17.033Z,100908.91
2022-08-05T12:39:51.434Z,100894.06
2022-08-05T12:42:25.430Z,100901.44
2022-08-05T12:45:02.947Z,100895.75
2022-08-05T12:48:01.018Z,100921.84
2022-08-05T12:50:27.203Z,100909.88
2022-08-05T12:52:59.742Z,100924.00
2022-08-05T12:55:33.066Z,100918.56
2022-08-05T12:58:49.717Z,100930.56
2022-08-05T13:02:00.102Z,100926.97
2022-08-05T13:03:43.021Z,100932.88
2022-08-05T13:06:16.372Z,100936.75
2022-08-05T13:08:52.499Z,100943.19
2022-08-05T13:11:47.058Z,100943.00
2022-08-05T13:14:19.413Z,100935.47
2022-08-05T13:16:51.401Z,100935.19
2022-08-05T13:19:22.948Z,100936.13
2022-08-05T13:21:55.918Z,100939.53
2022-08-05T13:24:45.003Z,100938.56
2022-08-05T13:30:53.914Z,100948.66
2022-08-05T13:34:21.354Z,100951.09
2022-08-05T13:36:14.385Z,100949.34
2022-08-05T13:38:43.277Z,100941.44
2022-08-05T13:41:11.682Z,100951.69
2022-08-05T13:43:44.528Z,100957.03
2022-08-05T13:46:37.720Z,100958.44
2022-08-05T13:49:12.742Z,100951.94
2022-08-05T13:51:46.659Z,100957.72
2022-08-05T13:54:16.062Z,100966.28
2022-08-05T13:56:50.775Z,100963.69
2022-08-05T13:59:21.318Z,100975.72
2022-08-05T14:01:57.406Z,100982.00
2022-08-05T14:04:49.843Z,100967.03
2022-08-05T14:07:57.027Z,100971.34
2022-08-05T14:10:12.378Z,100967.91
2022-08-05T14:12:42.911Z,100978.28
2022-08-05T14:16:04.312Z,100987.75
2022-08-05T14:18:01.019Z,101001.28
2022-08-05T14:20:30.825Z,101004.56
2022-08-05T14:22:58.617Z,101000.91
2022-08-05T14:25:28.427Z,101005.03
2022-08-05T14:27:58.462Z,101008.84
2022-08-05T14:30:27.869Z,101018.38
2022-08-05T14:32:56.890Z,101010.03
2022-08-05T14:35:37.534Z,100999.69
2022-08-05T14:38:32.937Z,101016.97
2022-08-05T14:41:06.685Z,101011.81
2022-08-05T14:44:02.298Z,101020.09
2022-08-05T14:46:29.101Z,101012.47
2022-08-05T14:48:58.705Z,101003.81
2022-08-05T14:51:30.808Z,101022.84
2022-08-05T14:54:25.891Z,101037.03
2022-08-05T14:56:54.576Z,101030.56
2022-08-05T14:59:22.829Z,101027.97
2022-08-05T15:01:51.444Z,101035.88
2022-08-05T15:04:23.516Z,101029.22
2022-08-05T15:06:56.053Z,101053.91
2022-08-05T15:09:52.223Z,101050.91
2022-08-05T15:12:16.452Z,101038.59
2022-08-05T15:14:49.525Z,101052.97
2022-08-05T15:17:47.709Z,101045.28
2022-08-05T15:20:17.206Z,101064.81
2022-08-05T15:22:53.979Z,101053.97
2022-08-05T15:25:50.859Z,101057.00
2022-08-05T15:28:14.395Z,101056.16
2022-08-05T15:30:43.307Z,101059.63
2022-08-05T15:33:11.730Z,101066.22
2022-08-05T15:35:45.399Z,101062.84
2022-08-05T15:38:34.854Z,101060.72
2022-08-05T15:41:23.235Z,101076.22
2022-08-05T15:43:52.224Z,101061.97
2022-08-05T15:46:24.076Z,101065.22
2022-08-05T15:49:01.062Z,101058.84
2022-08-05T15:52:13.375Z,101058.53
2022-08-05T15:54:35.176Z,101072.78
2022-08-05T15:58:07.394Z,101077.63
2022-08-05T16:00:56.998Z,101080.19
2022-08-05T16:04:29.804Z,101079.63
2022-08-05T16:06:58.156Z,101072.69
2022-08-05T16:09:26.163Z,101092.63
2022-08-05T16:11:54.447Z,101087.69
2022-08-05T16:14:24.115Z,101098.13
2022-08-05T16:16:54.727Z,101082.03
2022-08-05T16:20:03.505Z,101093.13
2022-08-05T16:22:13.327Z,101098.13
2022-08-05T16:24:51.784Z,101093.44
2022-08-05T16:27:47.279Z,101085.19
2022-08-05T16:30:23.014Z,101090.38
2022-08-05T16:32:55.340Z,101081.56
2022-08-05T16:35:27.691Z,101096.13
2022-08-05T16:38:16.109Z,101101.34
2022-08-05T16:40:51.615Z,101103.19
2022-08-05T16:43:24.286Z,101087.81
2022-08-05T16:46:03.761Z,101101.31
2022-08-05T16:48:38.920Z,101112.28
2022-08-05T16:51:09.748Z,101122.16
2022-08-05T16:54:04.304Z,101107.88
2022-08-05T16:57:53.334Z,101107.78
2022-08-05T17:00:26.306Z,101125.81
2022-08-05T17:03:09.123Z,101129.50
2022-08-05T17:05:44.741Z,101126.50
2022-08-05T17:08:36.348Z,101128.31
2022-08-05T17:11:12.544Z,101133.16
2022-08-05T17:13:44.663Z,101131.50
2022-08-05T17:16:29.935Z,101137.03
2022-08-05T17:19:01.674Z,101132.00
2022-08-05T17:21:35.680Z,101128.66
2022-08-05T17:24:18.471Z,101142.47
2022-08-05T17:26:53.715Z,101140.00
2022-08-05T17:29:33.646Z,101137.41
2022-08-05T17:32:11.781Z,101139.47
2022-08-05T17:34:44.740Z,101149.00
2022-08-05T17:37:41.165Z,101153.41
2022-08-05T17:40:12.245Z,101164.00
2022-08-05T17:42:51.369Z,101171.13
2022-08-05T17:45:25.016Z,101176.66
2022-08-05T17:47:57.631Z,101187.25
2022-08-05T17:50:30.811Z,101174.75
2022-08-05T17:53:04.642Z,101178.31
2022-08-05T17:56:34.524Z,101181.59
2022-08-05T17:59:05.371Z,101188.56
2022-08-05T18:01:49.268Z,101181.56
2022-08-05T18:04:21.049Z,101190.22
2022-08-05T18:06:49.258Z,101198.84
2022-08-05T18:09:19.233Z,101199.41
2022-08-05T18:11:49.747Z,101190.25
2022-08-05T18:14:22.251Z,101190.34
2022-08-05T18:16:51.891Z,101204.59
2022-08-05T18:19:22.644Z,101195.56
2022-08-05T18:22:08.775Z,101205.50
2022-08-05T18:24:40.361Z,101206.56
2022-08-05T18:27:12.671Z,101216.78
2022-08-05T18:29:54.017Z,101230.16
2022-08-05T18:37:02.895Z,101237.63
2022-08-05T18:40:30.979Z,101233.94
2022-08-05T18:42:21.317Z,101246.16
2022-08-05T18:44:55.673Z,101243.81
2022-08-05T18:47:26.396Z,101247.50
2022-08-05T18:50:12.879Z,101248.53
2022-08-05T18:52:51.262Z,101246.63
2022-08-05T18:56:25.389Z,101243.91
2022-08-05T18:59:01.050Z,101247.94
2022-08-05T19:01:47.846Z,101241.50
2022-08-05T19:04:23.753Z,101250.66
2022-08-05T19:06:54.447Z,101260.94
2022-08-05T19:09:23.530Z,101255.78
2022-08-05T19:12:01.022Z,101260.97
2022-08-05T19:14:59.218Z,101256.59
2022-08-05T19:17:22.198Z,101254.81
2022-08-05T19:19:56.114Z,101256.94
2022-08-05T19:22:27.808Z,101261.69
2022-08-05T19:25:00.817Z,101265.91
2022-08-05T19:27:30.818Z,101275.00
2022-08-05T19:30:01.554Z,101279.59
2022-08-05T19:32:32.121Z,101280.81
2022-08-05T19:35:05.807Z,101288.47
2022-08-05T19:38:04.669Z,101282.56
2022-08-05T19:40:24.210Z,101301.38
2022-08-05T19:43:00.872Z,101308.03
2022-08-05T19:45:36.934Z,101308.84
2022-08-05T19:48:05.651Z,101312.53
2022-08-05T19:50:35.107Z,101315.75
2022-08-05T19:53:09.418Z,101323.19
2022-08-05T19:56:19.234Z,101327.09
2022-08-05T19:58:29.465Z,101331.69
2022-08-05T20:01:02.211Z,101337.13
2022-08-05T20:03:38.714Z,101338.59
2022-08-05T20:09:53.573Z,101331.59
2022-08-05T20:12:23.748Z,101343.88
2022-08-05T20:14:52.490Z,101344.09
2022-08-05T20:17:24.692Z,101351.66
2022-08-05T20:19:56.568Z,101356.38
2022-08-05T20:22:27.132Z,101362.13
2022-08-05T20:24:55.351Z,101364.16
2022-08-05T20:27:26.694Z,101374.59
2022-08-05T20:29:58.288Z,101380.97
2022-08-05T20:32:28.622Z,101374.59
2022-08-05T20:34:57.007Z,101386.66
2022-08-05T20:38:06.227Z,101380.09
2022-08-05T20:40:14.203Z,101382.22
2022-08-05T20:42:41.839Z,101401.97
2022-08-05T20:45:12.214Z,101383.50
2022-08-05T20:47:42.284Z,101388.16
2022-08-05T20:50:12.080Z,101387.81
2022-08-05T20:52:42.215Z,101407.66
2022-08-05T20:56:07.274Z,101400.75
2022-08-05T20:57:58.409Z,101399.94
2022-08-05T21:00:44.434Z,101408.47
2022-08-05T21:03:21.517Z,101406.47
2022-08-05T21:05:53.829Z,101414.66
2022-08-05T21:08:26.682Z,101410.03
2022-08-05T21:10:58.352Z,101409.06
2022-08-05T21:13:48.354Z,101410.81
2022-08-05T21:16:20.823Z,101423.63
2022-08-05T21:18:52.350Z,101417.84
2022-08-05T21:21:20.423Z,101414.16
2022-08-05T21:23:52.989Z,101420.13
2022-08-05T21:26:20.825Z,101424.34
2022-08-05T21:28:56.227Z,101429.84
2022-08-05T21:31:41.303Z,101432.66
2022-08-05T21:34:11.456Z,101435.75
2022-08-05T21:36:39.569Z,101431.69
2022-08-05T21:39:14.249Z,101432.91
2022-08-05T21:41:52.809Z,101443.13
2022-08-05T21:44:28.678Z,101447.25
2022-08-05T21:46:58.238Z,101450.03
2022-08-05T21:49:59.336Z,101434.19
2022-08-05T21:52:27.894Z,101454.09
2022-08-05T21:56:09.640Z,101452.00
2022-08-05T21:58:48.225Z,101452.66
2022-08-05T22:01:25.900Z,101450.63
2022-08-05T22:03:54.057Z,101451.69
2022-08-05T22:06:35.581Z,101447.25
2022-08-05T22:09:14.557Z,101444.22
2022-08-05T22:11:46.970Z,101440.63
2022-08-05T22:14:33.713Z,101446.59
2022-08-05T22:17:06.807Z,101443.59
2022-08-05T22:20:00.270Z,101450.34
2022-08-05T22:22:29.828Z,101459.97
2022-08-05T22:25:18.067Z,101460.06
2022-08-05T22:28:11.166Z,101460.50
2022-08-05T22:30:55.345Z,101456.97
2022-08-05T22:33:55.898Z,101458.59
2022-08-05T22:36:15.134Z,101459.06
2022-08-05T22:38:48.185Z,101459.06
2022-08-05T22:42:05.554Z,101467.88
2022-08-05T22:44:05.818Z,101470.75
2022-08-05T22:46:39.964Z,101470.59
2022-08-05T22:49:12.443Z,101477.38
2022-08-05T22:52:05.945Z,101473.91
2022-08-05T22:54:37.360Z,101479.09
2022-08-05T22:57:08.553Z,101483.63
2022-08-05T22:59:43.966Z,101479.72
2022-08-05T23:02:17.891Z,101484.47
2022-08-05T23:04:51.949Z,101479.69
2022-08-05T23:07:22.251Z,101477.38
2022-08-05T23:10:01.731Z,101484.25
2022-08-05T23:12:32.585Z,101475.28
2022-08-05T23:15:01.346Z,101485.94
2022-08-05T23:17:37.156Z,101478.69
2022-08-05T23:20:10.546Z,101498.50
2022-08-05T23:22:47.736Z,101500.56
2022-08-05T23:25:53.523Z,101493.31
2022-08-05T23:28:08.828Z,101494.47
2022-08-05T23:30:40.633Z,101499.31
2022-08-05T23:33:22.092Z,101498.03
2022-08-05T23:35:56.303Z,101497.81
2022-08-05T23:38:25.907Z,101509.59
2022-08-05T23:40:55.303Z,101509.56
2022-08-05T23:43:37.312Z,101510.81
2022-08-05T23:46:20.215Z,101503.75
2022-08-05T23:49:52.209Z,101509.81
2022-08-05T23:52:30.732Z,101514.50
2022-08-05T23:55:00.745Z,101524.41
2022-08-05T23:57:32.769Z,101521.03
